Time;durP1;ratioP1;P1;durP2;ratioP2;P2;SDS_P1;SDS_P2;PMS_P1;PMS_P2;Temp;Humidity;BMP_temperature;BMP_pressure;BME280_temperature;BME280_humidity;BME280_pressure;Samples;Min_cycle;Max_cycle;Signal;HPM_P1;HPM_P2
2024/01/14 00:01:47;;;;;;;0.00;0.00;;;-1.30;99.90;;;;;;4994676;28;20033;-65
2024/01/14 00:04:13;;;;;;;0.00;0.00;;;-1.30;99.90;;;;;;5005698;28;20038;-63
2024/01/14 00:06:38;;;;;;;0.00;0.00;;;-1.30;99.90;;;;;;4995724;28;20029;-64
2024/01/14 00:09:04;;;;;;;0.00;0.00;;;-1.30;99.90;;;;;;4999607;28;20065;-66
2024/01/14 00:11:29;;;;;;;0.00;0.00;;;-1.30;99.90;;;;;;5001794;28;20091;-64
2024/01/14 00:13:56;;;;;;;0.00;0.00;;;-1.30;99.90;;;;;;4997566;28;20034;-64
2024/01/14 00:16:22;;;;;;;0.00;0.00;;;-1.30;99.90;;;;;;5000409;28;20034;-64
2024/01/14 00:18:47;;;;;;;0.00;0.00;;;-1.30;99.90;;;;;;5000367;28;20040;-64
2024/01/14 00:21:13;;;;;;;0.00;0.00;;;-1.30;99.90;;;;;;4998290;28;20109;-64
2024/01/14 00:23:39;;;;;;;0.00;0.00;;;-1.30;99.90;;;;;;4997379;28;20029;-66
2024/01/14 00:26:04;;;;;;;0.00;0.00;;;-1.30;99.90;;;;;;5001562;28;20084;-64
2024/01/14 00:28:30;;;;;;;0.00;0.00;;;-1.30;99.90;;;;;;5000283;28;20036;-64
2024/01/14 00:30:56;;;;;;;0.00;0.00;;;-1.30;99.90;;;;;;4998507;28;20037;-64
2024/01/14 00:33:21;;;;;;;0.00;0.00;;;-1.30;99.90;;;;;;4995022;28;20053;-65
2024/01/14 00:35:47;;;;;;;0.00;0.00;;;-1.30;99.90;;;;;;4998211;28;20108;-66
2024/01/14 00:38:15;;;;;;;0.00;0.00;;;-1.30;99.90;;;;;;4993883;28;20018;-66
2024/01/14 00:40:40;;;;;;;0.00;0.00;;;-1.30;99.90;;;;;;4997313;28;20643;-64
2024/01/14 00:43:06;;;;;;;0.00;0.00;;;-1.30;99.90;;;;;;4996327;28;20037;-66
2024/01/14 00:45:33;;;;;;;0.00;0.00;;;-1.30;99.90;;;;;;4995413;28;20018;-66
2024/01/14 00:47:58;;;;;;;0.00;0.00;;;-1.30;99.90;;;;;;5012419;28;20117;-64
2024/01/14 00:50:24;;;;;;;0.00;0.00;;;-1.30;99.90;;;;;;4997811;28;20101;-64
2024/01/14 00:52:50;;;;;;;0.00;0.00;;;-1.30;99.90;;;;;;4998423;28;20045;-65
2024/01/14 00:55:15;;;;;;;0.00;0.00;;;-1.30;99.90;;;;;;4996947;28;21181;-64
2024/01/14 00:57:41;;;;;;;0.40;0.40;;;-1.30;99.90;;;;;;4998552;28;20478;-64
2024/01/14 01:00:09;;;;;;;0.00;0.00;;;-1.30;99.90;;;;;;5010727;28;20025;-66
2024/01/14 01:02:35;;;;;;;0.00;0.00;;;-1.30;99.90;;;;;;5000533;28;20116;-64
2024/01/14 01:05:02;;;;;;;0.00;0.00;;;-1.20;99.90;;;;;;4997399;28;20036;-64
2024/01/14 01:07:27;;;;;;;0.00;0.00;;;-1.20;99.90;;;;;;4994590;28;20030;-64
2024/01/14 01:09:53;;;;;;;0.00;0.00;;;-1.20;99.90;;;;;;4998362;28;20674;-68
2024/01/14 01:12:19;;;;;;;0.00;0.00;;;-1.20;99.90;;;;;;5001049;28;20038;-68
2024/01/14 01:14:46;;;;;;;0.00;0.00;;;-1.10;99.90;;;;;;4997957;28;20030;-67
2024/01/14 01:17:11;;;;;;;;;;;-1.20;99.90;;;;;;4996579;28;20058;-67
2024/01/14 01:19:37;;;;;;;0.00;0.00;;;-1.20;99.90;;;;;;4996638;28;19952;-67
2024/01/14 01:22:02;;;;;;;0.00;0.00;;;-1.10;99.90;;;;;;4997234;28;20033;-67
2024/01/14 01:24:28;;;;;;;0.00;0.00;;;-1.10;99.90;;;;;;4999018;28;20075;-67
2024/01/14 01:26:54;;;;;;;1.17;0.33;;;-1.10;99.90;;;;;;4993129;28;20049;-67
2024/01/14 01:29:19;;;;;;;0.00;0.00;;;-1.20;99.90;;;;;;4997614;28;20049;-68
2024/01/14 01:31:45;;;;;;;0.00;0.00;;;-1.10;99.90;;;;;;4997141;28;20113;-67
2024/01/14 01:34:11;;;;;;;0.10;0.10;;;-1.20;99.90;;;;;;4993939;28;20095;-67
2024/01/14 01:36:36;;;;;;;0.33;0.33;;;-1.10;99.90;;;;;;4997750;28;20080;-68
2024/01/14 01:39:03;;;;;;;0.83;0.47;;;-1.10;99.90;;;;;;4997619;28;20030;-67
2024/01/14 01:41:28;;;;;;;0.00;0.00;;;-1.10;99.90;;;;;;5012710;28;20057;-67
2024/01/14 01:43:54;;;;;;;0.00;0.00;;;-1.10;99.90;;;;;;4996573;28;20049;-67
2024/01/14 01:46:20;;;;;;;0.00;0.00;;;-1.20;99.90;;;;;;4997479;28;20017;-67
2024/01/14 01:48:46;;;;;;;0.00;0.00;;;-1.20;99.90;;;;;;4996101;28;20026;-67
2024/01/14 01:51:13;;;;;;;0.08;0.08;;;-1.20;99.90;;;;;;4997125;28;20021;-68
2024/01/14 01:53:40;;;;;;;0.00;0.00;;;-1.20;99.90;;;;;;4993815;28;20597;-67
2024/01/14 01:56:06;;;;;;;0.00;0.00;;;-1.20;99.90;;;;;;4997451;28;20040;-68
2024/01/14 01:58:32;;;;;;;0.07;0.07;;;-1.20;99.90;;;;;;4997074;28;20647;-67
2024/01/14 02:00:58;;;;;;;0.00;0.00;;;-1.20;99.90;;;;;;4991499;28;20265;-67
2024/01/14 02:03:25;;;;;;;0.00;0.00;;;-1.10;99.90;;;;;;4996018;28;20032;-67
2024/01/14 02:05:54;;;;;;;0.00;0.00;;;-1.20;99.90;;;;;;4993617;28;20038;-67
2024/01/14 02:08:20;;;;;;;0.00;0.00;;;-1.20;99.90;;;;;;4993820;28;20045;-67
2024/01/14 02:10:46;;;;;;;0.00;0.00;;;-1.10;99.90;;;;;;4997691;28;20010;-67
2024/01/14 02:13:11;;;;;;;0.00;0.00;;;-1.20;99.90;;;;;;4996259;28;20026;-67
2024/01/14 02:15:37;;;;;;;0.00;0.00;;;-1.20;99.90;;;;;;4997939;28;20096;-68
2024/01/14 02:18:03;;;;;;;0.00;0.00;;;-1.20;99.90;;;;;;4995935;28;20101;-67
2024/01/14 02:20:29;;;;;;;0.00;0.00;;;-1.20;99.90;;;;;;5003001;28;20112;-65
2024/01/14 02:22:56;;;;;;;0.00;0.00;;;-1.30;99.90;;;;;;4998441;28;20688;-65
2024/01/14 02:25:22;;;;;;;0.00;0.00;;;-1.30;99.90;;;;;;4997597;28;20026;-65
2024/01/14 02:27:49;;;;;;;0.00;0.00;;;-1.40;99.90;;;;;;5004458;28;20121;-66
2024/01/14 02:30:14;;;;;;;;;;;-1.40;99.90;;;;;;5001428;28;20018;-64
2024/01/14 02:32:40;;;;;;;0.20;0.20;;;-1.40;99.90;;;;;;4998452;28;19920;-64
2024/01/14 02:35:06;;;;;;;0.00;0.00;;;-1.40;99.90;;;;;;5000351;28;20203;-64
2024/01/14 02:37:33;;;;;;;0.10;0.10;;;-1.50;99.90;;;;;;5000168;28;20117;-64
2024/01/14 02:39:59;;;;;;;0.00;0.00;;;-1.50;99.90;;;;;;5016380;28;20033;-64
2024/01/14 02:42:24;;;;;;;0.00;0.00;;;-1.50;99.90;;;;;;5002217;28;20381;-65
2024/01/14 02:44:50;;;;;;;0.00;0.00;;;-1.60;99.90;;;;;;4997877;28;20101;-67
2024/01/14 02:47:16;;;;;;;0.00;0.00;;;-1.50;99.90;;;;;;5005163;28;20922;-64
2024/01/14 02:49:41;;;;;;;0.00;0.00;;;-1.60;99.90;;;;;;5000732;28;20042;-64
2024/01/14 02:52:07;;;;;;;0.00;0.00;;;-1.70;99.90;;;;;;4998324;28;20084;-64
2024/01/14 02:54:33;;;;;;;0.00;0.00;;;-1.70;99.90;;;;;;4999244;28;20088;-65
2024/01/14 02:56:59;;;;;;;0.00;0.00;;;-1.70;99.90;;;;;;4995585;28;20661;-64
2024/01/14 02:59:24;;;;;;;0.00;0.00;;;-1.70;99.90;;;;;;4998343;28;20025;-65
2024/01/14 03:01:50;;;;;;;0.00;0.00;;;-1.70;99.90;;;;;;4996449;28;20374;-64
2024/01/14 03:04:16;;;;;;;0.00;0.00;;;-1.70;99.90;;;;;;4997644;28;20060;-64
2024/01/14 03:06:42;;;;;;;0.00;0.00;;;-1.70;99.90;;;;;;4995343;28;20512;-65
2024/01/14 03:09:09;;;;;;;0.00;0.00;;;-1.70;99.90;;;;;;4999034;28;20026;-65
2024/01/14 03:11:35;;;;;;;0.00;0.00;;;-1.70;99.90;;;;;;5001247;28;20083;-64
2024/01/14 03:14:01;;;;;;;0.03;0.03;;;-1.70;99.90;;;;;;5009369;28;20033;-64
2024/01/14 03:16:27;;;;;;;0.00;0.00;;;-1.70;99.90;;;;;;4998824;28;20022;-66
2024/01/14 03:18:53;;;;;;;0.00;0.00;;;-1.80;99.90;;;;;;4999054;28;20751;-64
2024/01/14 03:21:19;;;;;;;0.00;0.00;;;-1.80;99.90;;;;;;5026455;28;20386;-67
2024/01/14 03:23:45;;;;;;;0.00;0.00;;;-1.80;99.90;;;;;;5004079;28;20041;-66
2024/01/14 03:26:11;;;;;;;0.00;0.00;;;-1.80;99.90;;;;;;5001418;28;20049;-64
2024/01/14 03:28:37;;;;;;;0.00;0.00;;;-1.80;99.90;;;;;;5000576;28;20029;-64
2024/01/14 03:31:03;;;;;;;0.00;0.00;;;-1.80;99.90;;;;;;5000041;28;20038;-64
2024/01/14 03:33:29;;;;;;;0.00;0.00;;;-1.80;99.90;;;;;;4999968;28;20113;-65
2024/01/14 03:35:54;;;;;;;0.00;0.00;;;-1.80;99.90;;;;;;5000177;28;20391;-66
2024/01/14 03:38:20;;;;;;;0.00;0.00;;;-1.80;99.90;;;;;;4996253;28;20525;-67
2024/01/14 03:40:46;;;;;;;0.00;0.00;;;-1.80;99.90;;;;;;4996093;28;20096;-67
2024/01/14 03:43:12;;;;;;;0.10;0.10;;;-1.80;99.90;;;;;;4997342;28;20016;-67
2024/01/14 03:45:38;;;;;;;0.00;0.00;;;-1.80;99.90;;;;;;4994720;28;20105;-67
2024/01/14 03:48:04;;;;;;;0.47;0.47;;;-1.80;99.90;;;;;;4997914;28;20706;-69
2024/01/14 03:50:29;;;;;;;0.00;0.00;;;-1.80;99.90;;;;;;4995325;28;20370;-68
2024/01/14 03:52:55;;;;;;;0.00;0.00;;;-1.80;99.90;;;;;;5027459;28;20034;-67
2024/01/14 03:55:21;;;;;;;0.00;0.00;;;-1.70;99.90;;;;;;4997257;28;20030;-68
2024/01/14 03:57:47;;;;;;;0.00;0.00;;;-1.70;99.90;;;;;;4997995;28;21537;-67
2024/01/14 04:00:13;;;;;;;0.00;0.00;;;-1.80;99.90;;;;;;4995378;28;20030;-66
2024/01/14 04:02:39;;;;;;;0.00;0.00;;;-1.70;99.90;;;;;;4997831;28;20026;-67
2024/01/14 04:05:05;;;;;;;0.00;0.00;;;-1.70;99.90;;;;;;4997950;28;20038;-68
2024/01/14 04:07:30;;;;;;;0.00;0.00;;;-1.70;99.90;;;;;;4997548;28;20037;-67
2024/01/14 04:09:56;;;;;;;0.00;0.00;;;-1.70;99.90;;;;;;5026262;28;20049;-68
2024/01/14 04:12:22;;;;;;;0.00;0.00;;;-1.70;99.90;;;;;;4997366;28;20026;-68
2024/01/14 04:14:48;;;;;;;0.00;0.00;;;-1.70;99.90;;;;;;4995279;28;20109;-68
2024/01/14 04:17:13;;;;;;;0.00;0.00;;;-1.70;99.90;;;;;;4996163;28;20038;-68
2024/01/14 04:19:39;;;;;;;0.00;0.00;;;-1.70;99.90;;;;;;4996328;28;20048;-68
2024/01/14 04:22:05;;;;;;;0.00;0.00;;;-1.60;99.90;;;;;;5018484;28;20022;-67
2024/01/14 04:24:31;;;;;;;0.00;0.00;;;-1.60;99.90;;;;;;4998142;28;20746;-68
2024/01/14 04:26:56;;;;;;;0.00;0.00;;;-1.60;99.90;;;;;;4997517;28;20033;-68
2024/01/14 04:29:22;;;;;;;0.53;0.53;;;-1.60;99.90;;;;;;4996811;28;20614;-68
2024/01/14 04:31:48;;;;;;;0.00;0.00;;;-1.60;99.90;;;;;;4992653;28;20037;-68
2024/01/14 04:34:14;;;;;;;0.00;0.00;;;-1.60;99.90;;;;;;4994301;28;20137;-67
2024/01/14 04:36:40;;;;;;;0.00;0.00;;;-1.50;99.90;;;;;;4998151;28;20032;-68
2024/01/14 04:39:05;;;;;;;0.00;0.00;;;-1.50;99.90;;;;;;4997782;28;20022;-68
2024/01/14 04:41:31;;;;;;;0.00;0.00;;;-1.60;99.90;;;;;;4994176;28;20025;-68
2024/01/14 04:43:57;;;;;;;0.00;0.00;;;-1.60;99.90;;;;;;4997124;28;20092;-68
2024/01/14 04:46:22;;;;;;;0.00;0.00;;;-1.60;99.90;;;;;;4997378;28;20041;-68
2024/01/14 04:48:48;;;;;;;0.00;0.00;;;-1.60;99.90;;;;;;4993034;28;20058;-68
2024/01/14 04:51:14;;;;;;;0.00;0.00;;;-1.60;99.90;;;;;;4999041;28;20030;-68
2024/01/14 04:53:39;;;;;;;0.00;0.00;;;-1.50;99.90;;;;;;4991543;28;20034;-68
2024/01/14 04:56:10;;;;;;;0.00;0.00;;;-1.50;99.90;;;;;;4999547;28;20093;-68
2024/01/14 04:58:36;;;;;;;0.00;0.00;;;-1.50;99.90;;;;;;4999027;28;20033;-68
2024/01/14 05:01:02;;;;;;;0.00;0.00;;;-1.50;99.90;;;;;;4998234;28;20065;-68
2024/01/14 05:03:28;;;;;;;0.00;0.00;;;-1.50;99.90;;;;;;4996952;28;20022;-68
2024/01/14 05:05:54;;;;;;;0.10;0.10;;;-1.40;99.90;;;;;;4999271;28;20053;-68
2024/01/14 05:08:19;;;;;;;0.10;0.10;;;-1.40;99.90;;;;;;4997961;28;20045;-67
2024/01/14 05:10:45;;;;;;;0.00;0.00;;;-1.50;99.90;;;;;;4996913;28;20469;-68
2024/01/14 05:13:11;;;;;;;0.00;0.00;;;-1.40;99.90;;;;;;4996439;28;20026;-68
2024/01/14 05:15:38;;;;;;;0.00;0.00;;;-1.50;99.90;;;;;;4996826;28;20046;-68
2024/01/14 05:18:04;;;;;;;0.00;0.00;;;-1.40;99.90;;;;;;5011976;28;21478;-68
2024/01/14 05:20:29;;;;;;;0.00;0.00;;;-1.50;99.90;;;;;;4995751;28;20029;-68
2024/01/14 05:22:55;;;;;;;0.00;0.00;;;-1.40;99.90;;;;;;5000843;28;20016;-68
2024/01/14 05:25:21;;;;;;;0.00;0.00;;;-1.40;99.90;;;;;;4997097;28;20034;-68
2024/01/14 05:27:47;;;;;;;0.00;0.00;;;-1.40;99.90;;;;;;4993218;28;20133;-68
2024/01/14 05:30:13;;;;;;;0.00;0.00;;;-1.40;99.90;;;;;;4995703;28;20482;-68
2024/01/14 05:32:39;;;;;;;0.00;0.00;;;-1.30;99.90;;;;;;5011929;28;20362;-68
2024/01/14 05:35:05;;;;;;;0.00;0.00;;;-1.30;99.90;;;;;;4998307;28;20037;-68
2024/01/14 05:37:31;;;;;;;0.00;0.00;;;-1.30;99.90;;;;;;5017461;28;20385;-68
2024/01/14 05:39:57;;;;;;;0.00;0.00;;;-1.30;99.90;;;;;;4997135;28;20084;-68
2024/01/14 05:42:23;;;;;;;0.00;0.00;;;-1.30;99.90;;;;;;4991198;28;20029;-68
2024/01/14 05:44:48;;;;;;;0.00;0.00;;;-1.30;99.90;;;;;;4998920;28;20109;-68
2024/01/14 05:47:14;;;;;;;0.00;0.00;;;-1.30;99.90;;;;;;5000836;28;20025;-68
2024/01/14 05:49:40;;;;;;;0.00;0.00;;;-1.30;99.90;;;;;;4998265;28;20029;-68
2024/01/14 05:52:05;;;;;;;0.00;0.00;;;-1.30;99.90;;;;;;4999571;28;20232;-68
2024/01/14 05:54:31;;;;;;;0.00;0.00;;;-1.30;99.90;;;;;;4997576;28;20034;-68
2024/01/14 05:56:57;;;;;;;0.00;0.00;;;-1.30;99.90;;;;;;5004753;28;20038;-68
2024/01/14 05:59:23;;;;;;;0.00;0.00;;;-1.30;99.90;;;;;;5015842;28;20014;-68
2024/01/14 06:01:49;;;;;;;0.00;0.00;;;-1.20;99.90;;;;;;4996768;28;20633;-67
2024/01/14 06:04:15;;;;;;;0.00;0.00;;;-1.30;99.90;;;;;;4999639;28;20494;-67
2024/01/14 06:06:40;;;;;;;0.00;0.00;;;-1.20;99.90;;;;;;4998328;28;20025;-68
2024/01/14 06:09:06;;;;;;;0.00;0.00;;;-1.30;99.90;;;;;;5000715;28;20152;-67
2024/01/14 06:11:32;;;;;;;0.00;0.00;;;-1.30;99.90;;;;;;4997974;28;20092;-67
2024/01/14 06:13:57;;;;;;;0.00;0.00;;;-1.30;99.90;;;;;;4997940;28;20385;-68
2024/01/14 06:16:25;;;;;;;0.00;0.00;;;-1.30;99.90;;;;;;5002192;28;20722;-68
2024/01/14 06:18:50;;;;;;;0.00;0.00;;;-1.30;99.90;;;;;;4996033;28;20020;-68
2024/01/14 06:21:16;;;;;;;0.00;0.00;;;-1.30;99.90;;;;;;4999225;28;20417;-69
2024/01/14 06:23:42;;;;;;;0.00;0.00;;;-1.20;99.90;;;;;;4996827;28;20108;-69
2024/01/14 06:26:14;;;;;;;0.00;0.00;;;-1.20;99.90;;;;;;4999068;28;20045;-68
2024/01/14 06:28:39;;;;;;;0.00;0.00;;;-1.10;99.90;;;;;;4995094;28;20068;-68
2024/01/14 06:31:07;;;;;;;0.00;0.00;;;-1.00;99.90;;;;;;4999801;28;20076;-68
2024/01/14 06:33:33;;;;;;;0.00;0.00;;;-0.80;99.90;;;;;;5000417;28;20034;-68
2024/01/14 06:35:59;;;;;;;0.00;0.00;;;-0.80;99.90;;;;;;5004406;28;20030;-69
2024/01/14 06:38:24;;;;;;;0.00;0.00;;;-0.80;99.90;;;;;;4999359;28;20036;-69
2024/01/14 06:40:50;;;;;;;0.00;0.00;;;-0.80;99.90;;;;;;5000851;28;20026;-69
2024/01/14 06:43:16;;;;;;;0.00;0.00;;;-0.80;99.90;;;;;;5001305;28;20026;-69
2024/01/14 06:45:42;;;;;;;0.00;0.00;;;-0.80;99.90;;;;;;4999327;28;20037;-69
2024/01/14 06:48:08;;;;;;;0.00;0.00;;;-0.80;99.90;;;;;;4996882;28;20014;-69
2024/01/14 06:50:34;;;;;;;0.00;0.00;;;-0.80;99.90;;;;;;5000920;28;20077;-68
2024/01/14 06:53:00;;;;;;;0.00;0.00;;;-0.80;99.90;;;;;;5000889;28;20033;-69
2024/01/14 06:55:25;;;;;;;0.00;0.00;;;-0.80;99.90;;;;;;4996213;28;20450;-67
2024/01/14 06:57:51;;;;;;;0.20;0.20;;;-0.80;99.90;;;;;;5031237;28;20493;-70
2024/01/14 07:00:16;;;;;;;0.00;0.00;;;-0.80;99.90;;;;;;4995102;28;20034;-69
2024/01/14 07:02:42;;;;;;;0.00;0.00;;;-0.70;99.90;;;;;;5000707;28;20014;-70
2024/01/14 07:05:09;;;;;;;0.00;0.00;;;-0.60;99.90;;;;;;5000641;28;20053;-69
2024/01/14 07:07:35;;;;;;;0.00;0.00;;;-0.40;99.90;;;;;;4999562;28;20076;-68
2024/01/14 07:10:01;;;;;;;0.00;0.00;;;-0.20;99.90;;;;;;5002779;28;20095;-68
2024/01/14 07:12:27;;;;;;;0.00;0.00;;;-0.10;99.90;;;;;;4995374;28;20042;-68
2024/01/14 07:14:52;;;;;;;0.00;0.00;;;0.00;99.90;;;;;;4999626;28;20072;-69
2024/01/14 07:17:19;;;;;;;0.00;0.00;;;0.80;99.90;;;;;;4999543;28;20493;-68
2024/01/14 07:19:45;;;;;;;0.00;0.00;;;1.90;99.90;;;;;;4997274;28;20018;-68
2024/01/14 07:22:11;;;;;;;0.00;0.00;;;2.70;99.90;;;;;;4998897;28;20614;-68
2024/01/14 07:24:36;;;;;;;0.00;0.00;;;3.70;99.90;;;;;;5009419;28;20045;-68
2024/01/14 07:27:02;;;;;;;0.00;0.00;;;4.20;99.90;;;;;;4999131;28;20061;-68
2024/01/14 07:29:28;;;;;;;0.00;0.00;;;4.80;99.90;;;;;;5000024;28;20540;-68
2024/01/14 07:31:54;;;;;;;0.00;0.00;;;5.60;99.90;;;;;;4998898;28;20057;-68
2024/01/14 07:34:20;;;;;;;0.00;0.00;;;6.10;99.40;;;;;;4999591;28;20084;-68
2024/01/14 07:36:46;;;;;;;0.00;0.00;;;6.70;97.70;;;;;;4997006;28;20034;-68
2024/01/14 07:39:12;;;;;;;0.00;0.00;;;7.00;96.50;;;;;;5004277;28;20080;-68
2024/01/14 07:41:39;;;;;;;0.00;0.00;;;7.10;95.70;;;;;;5000853;28;20052;-68
2024/01/14 07:44:05;;;;;;;0.00;0.00;;;7.40;95.20;;;;;;5001831;28;20117;-68
2024/01/14 07:46:31;;;;;;;0.00;0.00;;;7.70;94.20;;;;;;4999650;28;20022;-68
2024/01/14 07:48:57;;;;;;;0.00;0.00;;;7.50;93.40;;;;;;4999155;28;20051;-68
2024/01/14 07:51:23;;;;;;;0.00;0.00;;;7.00;94.10;;;;;;4999646;28;20032;-68
2024/01/14 07:53:50;;;;;;;0.00;0.00;;;6.60;94.80;;;;;;4998558;28;20041;-68
2024/01/14 07:56:18;;;;;;;0.00;0.00;;;6.10;95.60;;;;;;4996671;28;20025;-67
2024/01/14 07:58:43;;;;;;;0.00;0.00;;;5.60;96.40;;;;;;4997522;28;20029;-68
2024/01/14 08:01:09;;;;;;;0.00;0.00;;;5.00;96.90;;;;;;4999702;28;20022;-68
2024/01/14 08:03:35;;;;;;;0.00;0.00;;;4.50;97.90;;;;;;4996530;28;20022;-67
2024/01/14 08:06:02;;;;;;;0.00;0.00;;;4.30;99.00;;;;;;5003788;28;20105;-68
2024/01/14 08:08:28;;;;;;;0.00;0.00;;;4.00;99.40;;;;;;5010339;28;20084;-67
2024/01/14 08:10:53;;;;;;;0.00;0.00;;;3.80;99.80;;;;;;4997973;28;20550;-68
2024/01/14 08:13:19;;;;;;;0.00;0.00;;;3.80;99.90;;;;;;4994284;28;20152;-68
2024/01/14 08:15:45;;;;;;;0.00;0.00;;;3.80;99.90;;;;;;4995247;28;20022;-68
2024/01/14 08:18:11;;;;;;;0.00;0.00;;;3.70;99.90;;;;;;4997608;28;20737;-69
2024/01/14 08:20:37;;;;;;;0.00;0.00;;;3.90;99.90;;;;;;5014692;28;20022;-66
2024/01/14 08:23:03;;;;;;;0.00;0.00;;;3.90;99.90;;;;;;4998580;28;20030;-65
2024/01/14 08:25:28;;;;;;;0.00;0.00;;;4.30;99.90;;;;;;4991300;28;20026;-63
2024/01/14 08:27:55;;;;;;;0.00;0.00;;;5.30;99.10;;;;;;4994816;28;20088;-63
2024/01/14 08:30:21;;;;;;;0.00;0.00;;;6.30;97.30;;;;;;4992661;28;20109;-62
2024/01/14 08:32:46;;;;;;;0.00;0.00;;;7.50;96.20;;;;;;4998569;28;20678;-63
2024/01/14 08:35:12;;;;;;;0.00;0.00;;;8.50;93.50;;;;;;4997770;28;20030;-63
2024/01/14 08:37:38;;;;;;;0.00;0.00;;;9.50;91.20;;;;;;5012675;28;20033;-63
2024/01/14 08:40:04;;;;;;;0.10;0.10;;;10.10;88.00;;;;;;4998001;28;20030;-63
2024/01/14 08:42:31;;;;;;;0.00;0.00;;;10.60;85.20;;;;;;4998306;28;20018;-64
2024/01/14 08:44:57;;;;;;;;;;;10.90;84.10;;;;;;4993830;28;20444;-64
2024/01/14 08:47:22;;;;;;;0.00;0.00;;;11.30;80.50;;;;;;4995488;28;19905;-63
2024/01/14 08:49:48;;;;;;;0.03;0.03;;;12.80;78.10;;;;;;4991778;28;20033;-64
2024/01/14 08:52:14;;;;;;;0.00;0.00;;;13.70;73.20;;;;;;4997565;28;20128;-65
2024/01/14 08:54:39;;;;;;;0.00;0.00;;;14.30;69.70;;;;;;4992923;28;20263;-64
2024/01/14 08:57:07;;;;;;;0.00;0.00;;;14.70;67.60;;;;;;4996401;28;20083;-63
2024/01/14 08:59:33;;;;;;;0.00;0.00;;;15.30;65.50;;;;;;4996924;28;20021;-63
2024/01/14 09:01:58;;;;;;;0.75;0.45;;;16.00;63.20;;;;;;4997621;28;20083;-63
2024/01/14 09:04:24;;;;;;;0.10;0.10;;;16.40;62.40;;;;;;5009127;28;20461;-64
2024/01/14 09:06:49;;;;;;;0.00;0.00;;;16.60;66.70;;;;;;4996881;28;20026;-65
2024/01/14 09:09:15;;;;;;;0.00;0.00;;;16.80;63.00;;;;;;4995061;28;20033;-65
2024/01/14 09:11:41;;;;;;;0.00;0.00;;;16.80;60.70;;;;;;4993338;28;20092;-64
2024/01/14 09:14:07;;;;;;;0.00;0.00;;;17.30;59.70;;;;;;4997448;28;20034;-62
2024/01/14 09:16:32;;;;;;;0.00;0.00;;;17.30;58.60;;;;;;4995664;28;20049;-63
2024/01/14 09:18:58;;;;;;;0.00;0.00;;;17.30;58.30;;;;;;4991212;28;20050;-64
2024/01/14 09:21:25;;;;;;;0.00;0.00;;;17.60;57.90;;;;;;4997428;28;20311;-65
2024/01/14 09:23:51;;;;;;;0.00;0.00;;;17.80;56.90;;;;;;4997401;28;20446;-63
2024/01/14 09:26:16;;;;;;;0.00;0.00;;;18.40;56.80;;;;;;4992379;28;20046;-62
2024/01/14 09:28:42;;;;;;;0.00;0.00;;;18.80;56.80;;;;;;4995936;28;20454;-62
2024/01/14 09:31:08;;;;;;;0.00;0.00;;;19.30;55.90;;;;;;4996451;28;20261;-65
2024/01/14 09:33:33;;;;;;;0.00;0.00;;;18.90;54.70;;;;;;4996043;28;20084;-65
2024/01/14 09:36:06;;;;;;;0.00;0.00;;;18.70;55.40;;;;;;4997130;28;20038;-65
2024/01/14 09:38:32;;;;;;;0.00;0.00;;;19.60;54.80;;;;;;4998621;28;20260;-64
2024/01/14 09:41:21;;;;;;;0.00;0.00;;;19.80;54.10;;;;;;4993088;28;20380;-65
2024/01/14 09:43:50;;;;;;;0.00;0.00;;;19.40;53.40;;;;;;4996652;28;20026;-65
2024/01/14 09:46:16;;;;;;;0.00;0.00;;;19.00;54.20;;;;;;4997521;28;20652;-64
2024/01/14 09:48:44;;;;;;;0.00;0.00;;;19.30;54.30;;;;;;4993105;28;20033;-65
2024/01/14 09:51:10;;;;;;;0.00;0.00;;;19.70;53.70;;;;;;4995118;28;20056;-65
2024/01/14 09:53:37;;;;;;;0.00;0.00;;;20.30;53.10;;;;;;4998080;28;20109;-65
2024/01/14 09:56:07;;;;;;;0.00;0.00;;;19.70;52.80;;;;;;4995069;28;20038;-65
2024/01/14 09:58:34;;;;;;;0.00;0.00;;;19.60;52.70;;;;;;5000514;28;20742;-65
2024/01/14 10:01:04;;;;;;;0.00;0.00;;;19.70;52.60;;;;;;5009327;28;20056;-65
2024/01/14 10:03:30;;;;;;;0.00;0.00;;;19.30;52.50;;;;;;4996489;28;20029;-64
2024/01/14 10:05:57;;;;;;;0.00;0.00;;;19.30;52.20;;;;;;4998270;28;20022;-65
2024/01/14 10:08:22;;;;;;;0.00;0.00;;;19.10;53.10;;;;;;4996593;28;20030;-65
2024/01/14 10:10:54;;;;;;;0.00;0.00;;;19.30;53.60;;;;;;4996207;28;20020;-64
2024/01/14 10:13:21;;;;;;;0.00;0.00;;;20.30;52.00;;;;;;4996065;28;20665;-65
2024/01/14 10:15:50;;;;;;;0.00;0.00;;;21.20;51.50;;;;;;4994323;28;20476;-65
2024/01/14 10:18:16;;;;;;;0.00;0.00;;;21.10;50.70;;;;;;4994198;28;20026;-66
2024/01/14 10:20:42;;;;;;;0.00;0.00;;;20.30;50.80;;;;;;4996213;28;20347;-65
2024/01/14 10:23:08;;;;;;;0.00;0.00;;;18.80;51.90;;;;;;4996267;28;20053;-65
2024/01/14 10:25:34;;;;;;;0.00;0.00;;;19.20;52.30;;;;;;4999366;28;20526;-64
2024/01/14 10:28:03;;;;;;;0.00;0.00;;;19.20;51.50;;;;;;4997575;28;20037;-64
2024/01/14 10:30:29;;;;;;;0.00;0.00;;;18.70;51.60;;;;;;4992884;28;20018;-64
2024/01/14 10:32:55;;;;;;;0.00;0.00;;;18.40;51.70;;;;;;5000855;28;20044;-68
2024/01/14 10:35:23;;;;;;;0.00;0.00;;;18.50;52.30;;;;;;5000565;28;20265;-66
2024/01/14 10:37:49;;;;;;;0.10;0.10;;;19.80;51.90;;;;;;4999338;28;20094;-68
2024/01/14 10:40:17;;;;;;;0.00;0.00;;;20.40;52.90;;;;;;4996128;28;20044;-66
2024/01/14 10:42:43;;;;;;;0.00;0.00;;;20.70;51.10;;;;;;4998922;28;20265;-67
2024/01/14 10:45:09;;;;;;;0.00;0.00;;;20.50;50.20;;;;;;5000225;28;20386;-66
2024/01/14 10:47:35;;;;;;;0.00;0.00;;;20.90;49.50;;;;;;5016933;28;20070;-67
2024/01/14 10:50:01;;;;;;;0.00;0.00;;;21.10;49.00;;;;;;5000114;28;20026;-67
2024/01/14 10:52:32;;;;;;;0.00;0.00;;;21.10;49.10;;;;;;5001267;28;20032;-67
2024/01/14 10:55:01;;;;;;;0.10;0.10;;;20.70;49.40;;;;;;4998104;28;20385;-66
2024/01/14 10:57:36;;;;;;;0.00;0.00;;;21.00;49.10;;;;;;4996704;28;20018;-66
2024/01/14 11:00:08;;;;;;;0.00;0.00;;;21.20;48.70;;;;;;5000247;28;20029;-66
2024/01/14 11:02:35;;;;;;;0.00;0.00;;;20.70;48.90;;;;;;5000683;28;20030;-66
2024/01/14 11:05:05;;;;;;;0.00;0.00;;;21.10;49.00;;;;;;5001631;28;20544;-66
2024/01/14 11:07:35;;;;;;;0.00;0.00;;;20.80;51.00;;;;;;4995369;28;20309;-67
2024/01/14 11:10:02;;;;;;;0.00;0.00;;;20.10;50.70;;;;;;5001217;28;20030;-67
2024/01/14 11:12:56;;;;;;;0.00;0.00;;;18.80;52.40;;;;;;5000080;28;20080;-66
2024/01/14 11:15:28;;;;;;;0.00;0.00;;;15.50;52.50;;;;;;4994984;28;20025;-66
2024/01/14 11:18:21;;;;;;;0.00;0.00;;;12.80;56.30;;;;;;4997662;28;20116;-65
2024/01/14 11:21:04;;;;;;;0.00;0.00;;;10.80;59.70;;;;;;4998613;28;20030;-65
2024/01/14 11:23:33;;;;;;;0.00;0.00;;;9.70;62.20;;;;;;5014279;28;20037;-66
2024/01/14 11:25:59;;;;;;;0.00;0.00;;;9.00;64.90;;;;;;4998203;28;20038;-66
2024/01/14 11:28:27;;;;;;;0.00;0.00;;;8.60;66.20;;;;;;5011003;28;20021;-67
2024/01/14 11:30:55;;;;;;;0.00;0.00;;;8.40;67.10;;;;;;4998036;28;20022;-65
2024/01/14 11:33:42;;;;;;;0.00;0.00;;;8.20;68.00;;;;;;4997768;28;20167;-67
2024/01/14 11:36:08;;;;;;;0.00;0.00;;;8.00;68.40;;;;;;4998333;28;20018;-67
2024/01/14 11:38:37;;;;;;;0.80;0.68;;;7.70;68.50;;;;;;4994720;28;20029;-68
2024/01/14 11:41:28;;;;;;;0.00;0.00;;;7.50;69.70;;;;;;4998542;28;20022;-68
2024/01/14 11:43:57;;;;;;;0.00;0.00;;;7.30;70.60;;;;;;5010653;28;20496;-67
2024/01/14 11:46:40;;;;;;;0.00;0.00;;;7.30;70.60;;;;;;4998022;28;20033;-68
2024/01/14 11:49:10;;;;;;;0.00;0.00;;;7.30;71.40;;;;;;4999674;28;20113;-67
2024/01/14 11:51:50;;;;;;;0.00;0.00;;;7.30;71.40;;;;;;4997102;28;20030;-67
2024/01/14 11:54:17;;;;;;;0.38;0.25;;;7.40;71.20;;;;;;4998428;28;20034;-65
2024/01/14 11:56:43;;;;;;;0.00;0.00;;;7.20;73.00;;;;;;4993628;28;20057;-65
2024/01/14 11:59:09;;;;;;;0.00;0.00;;;7.20;73.00;;;;;;4998126;28;20108;-65
2024/01/14 12:01:36;;;;;;;0.00;0.00;;;7.30;74.10;;;;;;5013137;28;20272;-61
2024/01/14 12:04:08;;;;;;;0.00;0.00;;;7.20;73.90;;;;;;4999674;28;20044;-62
2024/01/14 12:06:41;;;;;;;0.00;0.00;;;7.10;74.70;;;;;;4995325;28;20025;-61
2024/01/14 12:09:08;;;;;;;0.00;0.00;;;7.10;75.30;;;;;;4997702;28;20401;-61
2024/01/14 12:11:36;;;;;;;0.00;0.00;;;7.10;75.50;;;;;;4999613;28;20037;-61
2024/01/14 12:14:02;;;;;;;0.00;0.00;;;7.10;75.00;;;;;;5013299;28;20053;-61
2024/01/14 12:16:30;;;;;;;0.00;0.00;;;7.10;75.20;;;;;;4996166;28;20041;-61
2024/01/14 12:18:55;;;;;;;0.00;0.00;;;7.10;76.70;;;;;;4996221;28;20029;-62
2024/01/14 12:21:22;;;;;;;0.00;0.00;;;7.20;75.50;;;;;;5000674;28;20030;-62
2024/01/14 12:23:49;;;;;;;0.00;0.00;;;7.30;77.00;;;;;;4994512;28;20033;-63
2024/01/14 12:26:14;;;;;;;0.00;0.00;;;7.40;76.20;;;;;;4997792;28;20030;-64
2024/01/14 12:28:40;;;;;;;0.00;0.00;;;7.40;78.00;;;;;;5000721;28;20033;-62
2024/01/14 12:31:06;;;;;;;0.00;0.00;;;7.50;76.80;;;;;;4997973;28;20026;-63
2024/01/14 12:33:33;;;;;;;0.30;0.20;;;7.40;75.50;;;;;;4996869;28;20503;-63
2024/01/14 12:35:59;;;;;;;;;;;7.40;75.70;;;;;;4997572;28;20052;-63
2024/01/14 12:38:25;;;;;;;0.00;0.00;;;7.30;75.50;;;;;;5002216;28;20344;-63
2024/01/14 12:40:50;;;;;;;0.00;0.00;;;7.20;77.10;;;;;;4997559;28;20053;-63
2024/01/14 12:43:16;;;;;;;0.13;0.13;;;7.00;75.90;;;;;;4991724;28;21377;-63
2024/01/14 12:45:49;;;;;;;0.00;0.00;;;6.80;76.50;;;;;;4996258;28;20030;-63
2024/01/14 12:48:22;;;;;;;0.00;0.00;;;6.70;77.30;;;;;;4992975;28;20378;-63